sensor_id;sensor_type;location;lat;lon;timestamp;P1;durP1;ratioP1;P2;durP2;ratioP2
22357;SDS011;11346;50.150;8.150;2023-08-06T00:01:09;4.20;;;3.80;;
22357;SDS011;11346;50.150;8.150;2023-08-06T00:03:36;5.20;;;3.40;;
22357;SDS011;11346;50.150;8.150;2023-08-06T00:06:04;6.07;;;3.37;;
22357;SDS011;11346;50.150;8.150;2023-08-06T00:08:33;4.30;;;3.10;;
22357;SDS011;11346;50.150;8.150;2023-08-06T00:11:00;4.23;;;3.20;;
22357;SDS011;11346;50.150;8.150;2023-08-06T00:13:27;6.40;;;3.23;;
22357;SDS011;11346;50.150;8.150;2023-08-06T00:15:54;3.40;;;3.10;;
22357;SDS011;11346;50.150;8.150;2023-08-06T00:18:21;5.00;;;3.07;;
22357;SDS011;11346;50.150;8.150;2023-08-06T00:20:49;5.40;;;3.10;;
22357;SDS011;11346;50.150;8.150;2023-08-06T00:23:16;4.37;;;3.23;;
22357;SDS011;11346;50.150;8.150;2023-08-06T00:25:44;6.00;;;3.10;;
22357;SDS011;11346;50.150;8.150;2023-08-06T00:28:12;3.10;;;2.80;;
22357;SDS011;11346;50.150;8.150;2023-08-06T00:30:40;3.73;;;2.97;;
22357;SDS011;11346;50.150;8.150;2023-08-06T00:33:07;5.63;;;3.80;;
22357;SDS011;11346;50.150;8.150;2023-08-06T00:35:34;3.93;;;3.00;;
22357;SDS011;11346;50.150;8.150;2023-08-06T00:38:01;3.47;;;3.13;;
22357;SDS011;11346;50.150;8.150;2023-08-06T00:40:28;4.17;;;3.23;;
22357;SDS011;11346;50.150;8.150;2023-08-06T00:42:57;4.43;;;3.30;;
22357;SDS011;11346;50.150;8.150;2023-08-06T00:45:24;5.07;;;3.30;;
22357;SDS011;11346;50.150;8.150;2023-08-06T00:47:51;5.47;;;3.10;;
22357;SDS011;11346;50.150;8.150;2023-08-06T00:50:19;3.47;;;3.17;;
22357;SDS011;11346;50.150;8.150;2023-08-06T00:52:47;3.83;;;3.03;;
22357;SDS011;11346;50.150;8.150;2023-08-06T00:55:15;4.33;;;3.03;;
22357;SDS011;11346;50.150;8.150;2023-08-06T00:57:42;4.20;;;2.87;;
22357;SDS011;11346;50.150;8.150;2023-08-06T01:00:11;4.83;;;3.30;;
22357;SDS011;11346;50.150;8.150;2023-08-06T01:02:38;3.23;;;2.90;;
22357;SDS011;11346;50.150;8.150;2023-08-06T01:05:06;5.23;;;3.50;;
22357;SDS011;11346;50.150;8.150;2023-08-06T01:07:37;6.63;;;3.23;;
22357;SDS011;11346;50.150;8.150;2023-08-06T01:10:14;4.03;;;3.63;;
22357;SDS011;11346;50.150;8.150;2023-08-06T01:12:43;4.33;;;3.40;;
22357;SDS011;11346;50.150;8.150;2023-08-06T01:15:14;5.70;;;3.20;;
22357;SDS011;11346;50.150;8.150;2023-08-06T01:17:42;5.23;;;3.50;;
22357;SDS011;11346;50.150;8.150;2023-08-06T01:20:09;8.10;;;3.30;;
22357;SDS011;11346;50.150;8.150;2023-08-06T01:22:38;3.80;;;3.20;;
22357;SDS011;11346;50.150;8.150;2023-08-06T01:25:05;6.77;;;3.07;;
22357;SDS011;11346;50.150;8.150;2023-08-06T01:27:33;4.03;;;3.20;;
22357;SDS011;11346;50.150;8.150;2023-08-06T01:30:06;5.47;;;3.80;;
22357;SDS011;11346;50.150;8.150;2023-08-06T01:32:34;4.50;;;3.73;;
22357;SDS011;11346;50.150;8.150;2023-08-06T01:35:02;9.90;;;3.97;;
22357;SDS011;11346;50.150;8.150;2023-08-06T01:37:31;3.90;;;3.60;;
22357;SDS011;11346;50.150;8.150;2023-08-06T01:39:59;6.83;;;3.20;;
22357;SDS011;11346;50.150;8.150;2023-08-06T01:42:27;3.50;;;3.00;;
22357;SDS011;11346;50.150;8.150;2023-08-06T01:44:54;4.47;;;3.20;;
22357;SDS011;11346;50.150;8.150;2023-08-06T01:47:21;3.50;;;2.90;;
22357;SDS011;11346;50.150;8.150;2023-08-06T01:49:48;4.33;;;3.37;;
22357;SDS011;11346;50.150;8.150;2023-08-06T01:52:15;5.37;;;3.83;;
22357;SDS011;11346;50.150;8.150;2023-08-06T01:54:42;5.57;;;3.40;;
22357;SDS011;11346;50.150;8.150;2023-08-06T01:57:11;5.60;;;3.00;;
22357;SDS011;11346;50.150;8.150;2023-08-06T01:59:38;6.80;;;3.50;;
22357;SDS011;11346;50.150;8.150;2023-08-06T02:02:05;6.03;;;3.30;;
22357;SDS011;11346;50.150;8.150;2023-08-06T02:04:32;4.33;;;3.20;;
22357;SDS011;11346;50.150;8.150;2023-08-06T02:07:00;5.00;;;3.00;;
22357;SDS011;11346;50.150;8.150;2023-08-06T02:09:27;5.40;;;3.20;;
22357;SDS011;11346;50.150;8.150;2023-08-06T02:11:54;7.93;;;2.90;;
22357;SDS011;11346;50.150;8.150;2023-08-06T02:14:22;4.80;;;2.77;;
22357;SDS011;11346;50.150;8.150;2023-08-06T02:16:50;6.33;;;3.60;;
22357;SDS011;11346;50.150;8.150;2023-08-06T02:19:17;4.13;;;3.10;;
22357;SDS011;11346;50.150;8.150;2023-08-06T02:21:44;3.57;;;3.03;;
22357;SDS011;11346;50.150;8.150;2023-08-06T02:24:11;7.87;;;3.33;;
22357;SDS011;11346;50.150;8.150;2023-08-06T02:26:38;3.13;;;2.83;;
22357;SDS011;11346;50.150;8.150;2023-08-06T02:29:05;4.77;;;3.30;;
22357;SDS011;11346;50.150;8.150;2023-08-06T02:31:34;7.30;;;3.27;;
22357;SDS011;11346;50.150;8.150;2023-08-06T02:34:01;5.33;;;3.30;;
22357;SDS011;11346;50.150;8.150;2023-08-06T02:36:28;9.40;;;3.27;;
22357;SDS011;11346;50.150;8.150;2023-08-06T02:38:55;4.47;;;3.20;;
22357;SDS011;11346;50.150;8.150;2023-08-06T02:41:22;4.90;;;3.03;;
22357;SDS011;11346;50.150;8.150;2023-08-06T02:43:49;3.63;;;2.63;;
22357;SDS011;11346;50.150;8.150;2023-08-06T02:46:16;3.97;;;3.20;;
22357;SDS011;11346;50.150;8.150;2023-08-06T02:48:44;4.57;;;3.50;;
22357;SDS011;11346;50.150;8.150;2023-08-06T02:51:11;5.80;;;3.63;;
22357;SDS011;11346;50.150;8.150;2023-08-06T02:53:38;5.73;;;3.20;;
22357;SDS011;11346;50.150;8.150;2023-08-06T02:56:05;8.03;;;3.40;;
22357;SDS011;11346;50.150;8.150;2023-08-06T02:58:32;7.70;;;2.93;;
22357;SDS011;11346;50.150;8.150;2023-08-06T03:01:00;6.40;;;3.60;;
22357;SDS011;11346;50.150;8.150;2023-08-06T03:03:28;5.20;;;3.30;;
22357;SDS011;11346;50.150;8.150;2023-08-06T03:05:56;5.30;;;3.13;;
22357;SDS011;11346;50.150;8.150;2023-08-06T03:08:24;4.10;;;2.97;;
22357;SDS011;11346;50.150;8.150;2023-08-06T03:10:51;4.83;;;2.80;;
22357;SDS011;11346;50.150;8.150;2023-08-06T03:13:18;7.10;;;3.13;;
22357;SDS011;11346;50.150;8.150;2023-08-06T03:15:51;4.97;;;2.80;;
22357;SDS011;11346;50.150;8.150;2023-08-06T03:18:18;7.53;;;3.10;;
22357;SDS011;11346;50.150;8.150;2023-08-06T03:20:46;4.90;;;3.27;;
22357;SDS011;11346;50.150;8.150;2023-08-06T03:23:14;4.37;;;3.10;;
22357;SDS011;11346;50.150;8.150;2023-08-06T03:25:41;5.10;;;3.20;;
22357;SDS011;11346;50.150;8.150;2023-08-06T03:28:08;4.40;;;3.30;;
22357;SDS011;11346;50.150;8.150;2023-08-06T03:30:35;3.47;;;2.90;;
22357;SDS011;11346;50.150;8.150;2023-08-06T03:33:02;2.90;;;2.57;;
22357;SDS011;11346;50.150;8.150;2023-08-06T03:35:29;4.93;;;3.00;;
22357;SDS011;11346;50.150;8.150;2023-08-06T03:37:57;4.87;;;3.07;;
22357;SDS011;11346;50.150;8.150;2023-08-06T03:40:25;4.27;;;3.00;;
22357;SDS011;11346;50.150;8.150;2023-08-06T03:42:52;5.70;;;2.90;;
22357;SDS011;11346;50.150;8.150;2023-08-06T03:45:19;6.03;;;2.70;;
22357;SDS011;11346;50.150;8.150;2023-08-06T03:47:46;6.67;;;2.77;;
22357;SDS011;11346;50.150;8.150;2023-08-06T03:50:13;4.93;;;3.20;;
22357;SDS011;11346;50.150;8.150;2023-08-06T03:52:40;4.83;;;2.90;;
22357;SDS011;11346;50.150;8.150;2023-08-06T03:55:07;7.23;;;3.07;;
22357;SDS011;11346;50.150;8.150;2023-08-06T03:57:36;7.17;;;2.87;;
22357;SDS011;11346;50.150;8.150;2023-08-06T04:00:03;5.43;;;3.27;;
22357;SDS011;11346;50.150;8.150;2023-08-06T04:02:30;4.03;;;3.17;;
22357;SDS011;11346;50.150;8.150;2023-08-06T04:04:57;5.27;;;3.30;;
22357;SDS011;11346;50.150;8.150;2023-08-06T04:07:25;5.57;;;2.97;;
22357;SDS011;11346;50.150;8.150;2023-08-06T04:09:52;11.13;;;3.50;;
22357;SDS011;11346;50.150;8.150;2023-08-06T04:12:19;9.10;;;3.03;;
22357;SDS011;11346;50.150;8.150;2023-08-06T04:14:48;5.57;;;3.00;;
22357;SDS011;11346;50.150;8.150;2023-08-06T04:17:15;4.83;;;2.87;;
22357;SDS011;11346;50.150;8.150;2023-08-06T04:19:45;5.33;;;2.70;;
22357;SDS011;11346;50.150;8.150;2023-08-06T04:22:12;3.67;;;2.80;;
22357;SDS011;11346;50.150;8.150;2023-08-06T04:24:39;6.17;;;3.00;;
22357;SDS011;11346;50.150;8.150;2023-08-06T04:27:07;2.40;;;2.20;;
22357;SDS011;11346;50.150;8.150;2023-08-06T04:29:34;6.13;;;2.73;;
22357;SDS011;11346;50.150;8.150;2023-08-06T04:32:03;4.87;;;2.67;;
22357;SDS011;11346;50.150;8.150;2023-08-06T04:34:30;3.93;;;2.30;;
22357;SDS011;11346;50.150;8.150;2023-08-06T04:36:58;3.20;;;2.30;;
22357;SDS011;11346;50.150;8.150;2023-08-06T04:39:25;6.27;;;2.53;;
22357;SDS011;11346;50.150;8.150;2023-08-06T04:41:52;5.13;;;2.50;;
22357;SDS011;11346;50.150;8.150;2023-08-06T04:44:20;3.93;;;2.27;;
22357;SDS011;11346;50.150;8.150;2023-08-06T04:46:47;5.47;;;2.17;;
22357;SDS011;11346;50.150;8.150;2023-08-06T04:49:15;1.50;;;1.50;;
22357;SDS011;11346;50.150;8.150;2023-08-06T04:51:42;2.67;;;1.93;;
22357;SDS011;11346;50.150;8.150;2023-08-06T04:54:09;2.03;;;1.67;;
22357;SDS011;11346;50.150;8.150;2023-08-06T04:56:36;3.50;;;1.47;;
22357;SDS011;11346;50.150;8.150;2023-08-06T04:59:03;1.47;;;1.10;;
22357;SDS011;11346;50.150;8.150;2023-08-06T05:01:31;3.80;;;1.20;;
22357;SDS011;11346;50.150;8.150;2023-08-06T05:03:58;1.13;;;1.13;;
22357;SDS011;11346;50.150;8.150;2023-08-06T05:06:26;1.40;;;1.23;;
22357;SDS011;11346;50.150;8.150;2023-08-06T05:08:53;0.93;;;0.93;;
22357;SDS011;11346;50.150;8.150;2023-08-06T05:11:20;1.33;;;1.20;;
22357;SDS011;11346;50.150;8.150;2023-08-06T05:13:47;1.07;;;1.07;;
22357;SDS011;11346;50.150;8.150;2023-08-06T05:16:14;1.80;;;1.30;;
22357;SDS011;11346;50.150;8.150;2023-08-06T05:18:41;1.27;;;1.27;;
22357;SDS011;11346;50.150;8.150;2023-08-06T05:21:08;1.40;;;1.30;;
22357;SDS011;11346;50.150;8.150;2023-08-06T05:23:37;1.23;;;1.10;;
22357;SDS011;11346;50.150;8.150;2023-08-06T05:26:04;1.00;;;1.00;;
22357;SDS011;11346;50.150;8.150;2023-08-06T05:28:31;1.50;;;1.30;;
22357;SDS011;11346;50.150;8.150;2023-08-06T05:30:58;1.03;;;1.03;;
22357;SDS011;11346;50.150;8.150;2023-08-06T05:33:25;2.57;;;1.33;;
22357;SDS011;11346;50.150;8.150;2023-08-06T05:35:52;1.43;;;1.10;;
22357;SDS011;11346;50.150;8.150;2023-08-06T05:38:19;3.33;;;1.83;;
22357;SDS011;11346;50.150;8.150;2023-08-06T05:40:48;2.47;;;1.20;;
22357;SDS011;11346;50.150;8.150;2023-08-06T05:43:15;2.67;;;1.17;;
22357;SDS011;11346;50.150;8.150;2023-08-06T05:45:43;1.07;;;1.03;;
22357;SDS011;11346;50.150;8.150;2023-08-06T05:48:11;4.50;;;1.20;;
22357;SDS011;11346;50.150;8.150;2023-08-06T05:50:38;1.00;;;1.00;;
22357;SDS011;11346;50.150;8.150;2023-08-06T05:53:05;1.00;;;0.90;;
22357;SDS011;11346;50.150;8.150;2023-08-06T05:55:32;1.03;;;1.00;;
22357;SDS011;11346;50.150;8.150;2023-08-06T05:58:01;0.87;;;0.87;;
22357;SDS011;11346;50.150;8.150;2023-08-06T06:00:28;2.20;;;0.97;;
22357;SDS011;11346;50.150;8.150;2023-08-06T06:02:55;0.80;;;0.80;;
22357;SDS011;11346;50.150;8.150;2023-08-06T06:05:22;0.80;;;0.80;;
22357;SDS011;11346;50.150;8.150;2023-08-06T06:07:49;1.07;;;0.90;;
22357;SDS011;11346;50.150;8.150;2023-08-06T06:10:16;0.80;;;0.80;;
22357;SDS011;11346;50.150;8.150;2023-08-06T06:12:43;1.53;;;0.90;;
22357;SDS011;11346;50.150;8.150;2023-08-06T06:15:12;0.90;;;0.90;;
22357;SDS011;11346;50.150;8.150;2023-08-06T06:17:39;0.80;;;0.80;;
22357;SDS011;11346;50.150;8.150;2023-08-06T06:20:06;0.70;;;0.70;;
22357;SDS011;11346;50.150;8.150;2023-08-06T06:22:33;0.70;;;0.70;;
22357;SDS011;11346;50.150;8.150;2023-08-06T06:25:00;0.80;;;0.80;;
22357;SDS011;11346;50.150;8.150;2023-08-06T06:27:27;0.70;;;0.70;;
22357;SDS011;11346;50.150;8.150;2023-08-06T06:29:54;0.80;;;0.80;;
22357;SDS011;11346;50.150;8.150;2023-08-06T06:32:23;0.77;;;0.77;;
22357;SDS011;11346;50.150;8.150;2023-08-06T06:34:50;0.73;;;0.70;;
22357;SDS011;11346;50.150;8.150;2023-08-06T06:37:17;0.77;;;0.77;;
22357;SDS011;11346;50.150;8.150;2023-08-06T06:39:44;0.70;;;0.70;;
22357;SDS011;11346;50.150;8.150;2023-08-06T06:42:11;0.70;;;0.70;;
22357;SDS011;11346;50.150;8.150;2023-08-06T06:44:40;0.70;;;0.70;;
22357;SDS011;11346;50.150;8.150;2023-08-06T06:47:07;0.70;;;0.70;;
22357;SDS011;11346;50.150;8.150;2023-08-06T06:49:35;0.60;;;0.60;;
22357;SDS011;11346;50.150;8.150;2023-08-06T06:52:03;0.50;;;0.50;;
22357;SDS011;11346;50.150;8.150;2023-08-06T06:54:30;0.73;;;0.60;;
22357;SDS011;11346;50.150;8.150;2023-08-06T06:56:57;1.70;;;0.60;;
22357;SDS011;11346;50.150;8.150;2023-08-06T06:59:24;0.80;;;0.80;;
22357;SDS011;11346;50.150;8.150;2023-08-06T07:01:51;0.77;;;0.70;;
22357;SDS011;11346;50.150;8.150;2023-08-06T07:04:18;0.60;;;0.60;;
22357;SDS011;11346;50.150;8.150;2023-08-06T07:06:46;0.60;;;0.60;;
22357;SDS011;11346;50.150;8.150;2023-08-06T07:09:17;0.67;;;0.60;;
22357;SDS011;11346;50.150;8.150;2023-08-06T07:11:44;0.70;;;0.70;;
22357;SDS011;11346;50.150;8.150;2023-08-06T07:14:11;1.13;;;0.80;;
22357;SDS011;11346;50.150;8.150;2023-08-06T07:16:39;0.50;;;0.50;;
22357;SDS011;11346;50.150;8.150;2023-08-06T07:19:06;0.70;;;0.70;;
22357;SDS011;11346;50.150;8.150;2023-08-06T07:21:33;0.80;;;0.70;;
22357;SDS011;11346;50.150;8.150;2023-08-06T07:24:02;1.70;;;0.70;;
22357;SDS011;11346;50.150;8.150;2023-08-06T07:26:29;0.80;;;0.80;;
22357;SDS011;11346;50.150;8.150;2023-08-06T07:28:56;0.60;;;0.60;;
22357;SDS011;11346;50.150;8.150;2023-08-06T07:31:23;1.50;;;0.70;;
22357;SDS011;11346;50.150;8.150;2023-08-06T07:33:51;0.80;;;0.80;;
22357;SDS011;11346;50.150;8.150;2023-08-06T07:36:18;3.70;;;0.80;;
22357;SDS011;11346;50.150;8.150;2023-08-06T07:38:45;0.70;;;0.70;;
22357;SDS011;11346;50.150;8.150;2023-08-06T07:41:15;1.40;;;0.70;;
22357;SDS011;11346;50.150;8.150;2023-08-06T07:43:42;1.40;;;0.80;;
22357;SDS011;11346;50.150;8.150;2023-08-06T07:46:09;0.80;;;0.80;;
22357;SDS011;11346;50.150;8.150;2023-08-06T07:48:38;0.60;;;0.60;;
22357;SDS011;11346;50.150;8.150;2023-08-06T07:51:05;2.20;;;0.80;;
22357;SDS011;11346;50.150;8.150;2023-08-06T07:53:32;0.63;;;0.63;;
22357;SDS011;11346;50.150;8.150;2023-08-06T07:55:59;0.70;;;0.70;;
22357;SDS011;11346;50.150;8.150;2023-08-06T07:58:28;0.80;;;0.80;;
22357;SDS011;11346;50.150;8.150;2023-08-06T08:00:56;0.83;;;0.83;;
22357;SDS011;11346;50.150;8.150;2023-08-06T08:03:23;3.60;;;0.90;;
22357;SDS011;11346;50.150;8.150;2023-08-06T08:05:53;0.90;;;0.90;;
22357;SDS011;11346;50.150;8.150;2023-08-06T08:08:22;1.03;;;1.00;;
22357;SDS011;11346;50.150;8.150;2023-08-06T08:10:49;0.70;;;0.70;;
22357;SDS011;11346;50.150;8.150;2023-08-06T08:13:16;0.67;;;0.67;;
22357;SDS011;11346;50.150;8.150;2023-08-06T08:15:44;0.83;;;0.60;;
22357;SDS011;11346;50.150;8.150;2023-08-06T08:18:12;0.70;;;0.70;;
22357;SDS011;11346;50.150;8.150;2023-08-06T08:20:39;3.20;;;0.70;;
22357;SDS011;11346;50.150;8.150;2023-08-06T08:23:06;1.00;;;0.90;;
22357;SDS011;11346;50.150;8.150;2023-08-06T08:25:33;0.70;;;0.70;;
22357;SDS011;11346;50.150;8.150;2023-08-06T08:28:09;0.83;;;0.83;;
22357;SDS011;11346;50.150;8.150;2023-08-06T08:30:36;0.77;;;0.77;;
22357;SDS011;11346;50.150;8.150;2023-08-06T08:33:05;0.83;;;0.67;;
22357;SDS011;11346;50.150;8.150;2023-08-06T08:35:32;2.00;;;0.70;;
22357;SDS011;11346;50.150;8.150;2023-08-06T08:38:00;0.70;;;0.70;;
22357;SDS011;11346;50.150;8.150;2023-08-06T08:40:28;1.47;;;0.70;;
22357;SDS011;11346;50.150;8.150;2023-08-06T08:42:56;0.77;;;0.60;;
22357;SDS011;11346;50.150;8.150;2023-08-06T08:45:24;1.97;;;0.60;;
22357;SDS011;11346;50.150;8.150;2023-08-06T08:47:53;0.67;;;0.67;;
22357;SDS011;11346;50.150;8.150;2023-08-06T08:50:21;1.63;;;0.60;;
22357;SDS011;11346;50.150;8.150;2023-08-06T08:52:48;1.63;;;0.70;;
22357;SDS011;11346;50.150;8.150;2023-08-06T08:55:17;1.20;;;0.50;;
22357;SDS011;11346;50.150;8.150;2023-08-06T08:57:46;0.70;;;0.70;;
22357;SDS011;11346;50.150;8.150;2023-08-06T09:00:13;0.70;;;0.70;;
22357;SDS011;11346;50.150;8.150;2023-08-06T09:02:40;2.13;;;1.00;;
22357;SDS011;11346;50.150;8.150;2023-08-06T09:05:08;0.83;;;0.70;;
22357;SDS011;11346;50.150;8.150;2023-08-06T09:07:38;0.70;;;0.70;;
22357;SDS011;11346;50.150;8.150;2023-08-06T09:10:07;0.50;;;0.50;;
22357;SDS011;11346;50.150;8.150;2023-08-06T09:12:36;1.70;;;0.70;;
22357;SDS011;11346;50.150;8.150;2023-08-06T09:15:04;0.87;;;0.63;;
22357;SDS011;11346;50.150;8.150;2023-08-06T09:17:31;1.60;;;0.60;;
22357;SDS011;11346;50.150;8.150;2023-08-06T09:19:58;0.83;;;0.60;;
22357;SDS011;11346;50.150;8.150;2023-08-06T09:22:25;0.60;;;0.60;;
22357;SDS011;11346;50.150;8.150;2023-08-06T09:25:01;0.50;;;0.50;;
22357;SDS011;11346;50.150;8.150;2023-08-06T09:27:34;0.60;;;0.60;;
22357;SDS011;11346;50.150;8.150;2023-08-06T09:30:01;0.60;;;0.60;;
22357;SDS011;11346;50.150;8.150;2023-08-06T09:32:29;0.60;;;0.60;;
22357;SDS011;11346;50.150;8.150;2023-08-06T09:35:13;1.03;;;0.50;;
22357;SDS011;11346;50.150;8.150;2023-08-06T09:37:42;0.50;;;0.50;;
22357;SDS011;11346;50.150;8.150;2023-08-06T09:40:24;0.60;;;0.60;;
22357;SDS011;11346;50.150;8.150;2023-08-06T09:42:51;1.17;;;0.60;;
22357;SDS011;11346;50.150;8.150;2023-08-06T09:45:18;0.70;;;0.70;;
22357;SDS011;11346;50.150;8.150;2023-08-06T09:47:46;1.33;;;0.70;;
22357;SDS011;11346;50.150;8.150;2023-08-06T09:50:17;0.60;;;0.60;;
22357;SDS011;11346;50.150;8.150;2023-08-06T09:52:44;0.67;;;0.60;;
22357;SDS011;11346;50.150;8.150;2023-08-06T09:55:12;1.43;;;0.50;;
22357;SDS011;11346;50.150;8.150;2023-08-06T09:57:40;0.60;;;0.60;;
22357;SDS011;11346;50.150;8.150;2023-08-06T10:00:08;2.37;;;0.60;;
22357;SDS011;11346;50.150;8.150;2023-08-06T10:02:35;1.33;;;0.60;;
22357;SDS011;11346;50.150;8.150;2023-08-06T10:05:04;1.00;;;0.63;;
22357;SDS011;11346;50.150;8.150;2023-08-06T10:07:31;0.50;;;0.50;;
22357;SDS011;11346;50.150;8.150;2023-08-06T10:09:58;0.60;;;0.60;;
22357;SDS011;11346;50.150;8.150;2023-08-06T10:12:26;2.30;;;0.70;;
22357;SDS011;11346;50.150;8.150;2023-08-06T10:14:57;0.50;;;0.50;;
22357;SDS011;11346;50.150;8.150;2023-08-06T10:17:25;1.80;;;0.67;;
22357;SDS011;11346;50.150;8.150;2023-08-06T10:19:53;0.63;;;0.60;;
22357;SDS011;11346;50.150;8.150;2023-08-06T10:22:21;1.83;;;0.60;;
22357;SDS011;11346;50.150;8.150;2023-08-06T10:24:49;0.60;;;0.60;;
22357;SDS011;11346;50.150;8.150;2023-08-06T10:27:20;0.50;;;0.50;;
22357;SDS011;11346;50.150;8.150;2023-08-06T10:29:47;0.73;;;0.50;;
22357;SDS011;11346;50.150;8.150;2023-08-06T10:32:16;0.70;;;0.70;;
22357;SDS011;11346;50.150;8.150;2023-08-06T10:34:53;0.77;;;0.50;;
22357;SDS011;11346;50.150;8.150;2023-08-06T10:37:21;0.53;;;0.53;;
22357;SDS011;11346;50.150;8.150;2023-08-06T10:39:49;0.50;;;0.50;;
22357;SDS011;11346;50.150;8.150;2023-08-06T10:42:20;0.60;;;0.60;;
22357;SDS011;11346;50.150;8.150;2023-08-06T10:47:37;0.60;;;0.60;;
22357;SDS011;11346;50.150;8.150;2023-08-06T10:50:05;0.50;;;0.50;;
22357;SDS011;11346;50.150;8.150;2023-08-06T10:52:33;0.93;;;0.87;;
22357;SDS011;11346;50.150;8.150;2023-08-06T10:55:00;1.03;;;0.60;;
22357;SDS011;11346;50.150;8.150;2023-08-06T10:57:27;0.60;;;0.60;;
22357;SDS011;11346;50.150;8.150;2023-08-06T10:59:54;0.50;;;0.50;;
22357;SDS011;11346;50.150;8.150;2023-08-06T11:02:21;0.50;;;0.50;;
22357;SDS011;11346;50.150;8.150;2023-08-06T11:04:50;4.77;;;0.97;;
22357;SDS011;11346;50.150;8.150;2023-08-06T11:07:17;5.63;;;1.30;;
22357;SDS011;11346;50.150;8.150;2023-08-06T11:09:49;3.90;;;0.90;;
22357;SDS011;11346;50.150;8.150;2023-08-06T11:12:18;1.43;;;0.60;;
22357;SDS011;11346;50.150;8.150;2023-08-06T11:14:49;0.40;;;0.40;;
22357;SDS011;11346;50.150;8.150;2023-08-06T11:17:16;2.90;;;0.50;;
22357;SDS011;11346;50.150;8.150;2023-08-06T11:19:44;4.03;;;0.73;;
22357;SDS011;11346;50.150;8.150;2023-08-06T11:22:12;0.57;;;0.57;;
22357;SDS011;11346;50.150;8.150;2023-08-06T11:24:41;1.03;;;0.40;;
22357;SDS011;11346;50.150;8.150;2023-08-06T11:27:11;0.97;;;0.97;;
22357;SDS011;11346;50.150;8.150;2023-08-06T11:29:38;0.60;;;0.60;;
22357;SDS011;11346;50.150;8.150;2023-08-06T11:32:06;0.93;;;0.50;;
22357;SDS011;11346;50.150;8.150;2023-08-06T11:34:33;0.50;;;0.50;;
22357;SDS011;11346;50.150;8.150;2023-08-06T11:37:00;0.60;;;0.60;;
22357;SDS011;11346;50.150;8.150;2023-08-06T11:39:31;0.57;;;0.53;;
22357;SDS011;11346;50.150;8.150;2023-08-06T11:41:58;1.73;;;0.60;;
22357;SDS011;11346;50.150;8.150;2023-08-06T11:44:29;0.90;;;0.90;;
22357;SDS011;11346;50.150;8.150;2023-08-06T11:46:58;2.23;;;0.70;;
22357;SDS011;11346;50.150;8.150;2023-08-06T11:49:45;0.70;;;0.70;;
22357;SDS011;11346;50.150;8.150;2023-08-06T11:52:14;0.53;;;0.53;;
22357;SDS011;11346;50.150;8.150;2023-08-06T11:54:44;0.53;;;0.53;;
22357;SDS011;11346;50.150;8.150;2023-08-06T11:57:11;1.10;;;0.70;;
22357;SDS011;11346;50.150;8.150;2023-08-06T11:59:38;1.17;;;0.60;;
22357;SDS011;11346;50.150;8.150;2023-08-06T12:02:08;0.70;;;0.70;;
22357;SDS011;11346;50.150;8.150;2023-08-06T12:04:58;0.63;;;0.63;;
22357;SDS011;11346;50.150;8.150;2023-08-06T12:07:26;1.67;;;0.83;;
22357;SDS011;11346;50.150;8.150;2023-08-06T12:09:54;0.80;;;0.80;;
22357;SDS011;11346;50.150;8.150;2023-08-06T12:12:21;0.80;;;0.80;;
22357;SDS011;11346;50.150;8.150;2023-08-06T12:14:48;1.17;;;0.70;;
22357;SDS011;11346;50.150;8.150;2023-08-06T12:17:15;0.90;;;0.90;;
22357;SDS011;11346;50.150;8.150;2023-08-06T12:19:44;0.80;;;0.80;;
22357;SDS011;11346;50.150;8.150;2023-08-06T12:22:11;0.70;;;0.70;;
22357;SDS011;11346;50.150;8.150;2023-08-06T12:24:39;2.87;;;0.80;;
22357;SDS011;11346;50.150;8.150;2023-08-06T12:27:07;1.33;;;0.80;;
22357;SDS011;11346;50.150;8.150;2023-08-06T12:29:34;0.70;;;0.70;;
22357;SDS011;11346;50.150;8.150;2023-08-06T12:32:03;1.10;;;1.00;;
22357;SDS011;11346;50.150;8.150;2023-08-06T12:34:30;0.90;;;0.90;;
22357;SDS011;11346;50.150;8.150;2023-08-06T12:36:57;0.90;;;0.90;;
22357;SDS011;11346;50.150;8.150;2023-08-06T12:39:24;1.73;;;0.83;;
22357;SDS011;11346;50.150;8.150;2023-08-06T12:41:53;1.00;;;1.00;;
22357;SDS011;11346;50.150;8.150;2023-08-06T12:44:22;0.80;;;0.80;;
22357;SDS011;11346;50.150;8.150;2023-08-06T12:46:49;0.90;;;0.90;;
22357;SDS011;11346;50.150;8.150;2023-08-06T12:49:16;1.10;;;0.87;;
22357;SDS011;11346;50.150;8.150;2023-08-06T12:51:43;0.80;;;0.70;;
22357;SDS011;11346;50.150;8.150;2023-08-06T12:54:10;1.57;;;1.00;;
22357;SDS011;11346;50.150;8.150;2023-08-06T12:56:37;2.00;;;0.80;;
22357;SDS011;11346;50.150;8.150;2023-08-06T12:59:04;0.80;;;0.80;;
22357;SDS011;11346;50.150;8.150;2023-08-06T13:01:32;0.70;;;0.70;;
22357;SDS011;11346;50.150;8.150;2023-08-06T13:03:59;0.80;;;0.80;;
22357;SDS011;11346;50.150;8.150;2023-08-06T13:06:26;0.80;;;0.80;;
22357;SDS011;11346;50.150;8.150;2023-08-06T13:08:53;0.83;;;0.83;;
22357;SDS011;11346;50.150;8.150;2023-08-06T13:11:20;0.80;;;0.80;;
22357;SDS011;11346;50.150;8.150;2023-08-06T13:13:48;0.80;;;0.80;;
22357;SDS011;11346;50.150;8.150;2023-08-06T13:16:15;0.80;;;0.80;;
22357;SDS011;11346;50.150;8.150;2023-08-06T13:18:43;1.83;;;0.90;;
22357;SDS011;11346;50.150;8.150;2023-08-06T13:21:10;1.43;;;0.90;;
22357;SDS011;11346;50.150;8.150;2023-08-06T13:23:37;1.27;;;0.90;;
22357;SDS011;11346;50.150;8.150;2023-08-06T13:26:04;0.90;;;0.90;;
22357;SDS011;11346;50.150;8.150;2023-08-06T13:28:31;0.70;;;0.70;;
22357;SDS011;11346;50.150;8.150;2023-08-06T13:30:58;1.50;;;1.00;;
22357;SDS011;11346;50.150;8.150;2023-08-06T13:33:25;1.60;;;1.00;;
22357;SDS011;11346;50.150;8.150;2023-08-06T13:35:54;1.93;;;0.80;;
22357;SDS011;11346;50.150;8.150;2023-08-06T13:38:21;0.97;;;0.97;;
22357;SDS011;11346;50.150;8.150;2023-08-06T13:40:48;1.90;;;1.20;;
22357;SDS011;11346;50.150;8.150;2023-08-06T13:43:15;1.17;;;0.93;;
22357;SDS011;11346;50.150;8.150;2023-08-06T13:45:44;0.90;;;0.90;;
22357;SDS011;11346;50.150;8.150;2023-08-06T13:48:11;0.80;;;0.80;;
22357;SDS011;11346;50.150;8.150;2023-08-06T13:50:38;2.40;;;0.70;;
22357;SDS011;11346;50.150;8.150;2023-08-06T13:53:06;1.33;;;0.90;;
22357;SDS011;11346;50.150;8.150;2023-08-06T13:55:33;1.27;;;1.00;;
22357;SDS011;11346;50.150;8.150;2023-08-06T13:58:00;0.90;;;0.90;;
22357;SDS011;11346;50.150;8.150;2023-08-06T14:00:27;2.30;;;0.90;;
22357;SDS011;11346;50.150;8.150;2023-08-06T14:02:55;1.00;;;1.00;;
22357;SDS011;11346;50.150;8.150;2023-08-06T14:05:22;1.10;;;0.80;;
22357;SDS011;11346;50.150;8.150;2023-08-06T14:07:49;2.47;;;0.90;;
22357;SDS011;11346;50.150;8.150;2023-08-06T14:10:17;0.70;;;0.70;;
22357;SDS011;11346;50.150;8.150;2023-08-06T14:12:45;0.77;;;0.77;;
22357;SDS011;11346;50.150;8.150;2023-08-06T14:15:12;1.43;;;0.70;;
22357;SDS011;11346;50.150;8.150;2023-08-06T14:17:39;0.70;;;0.70;;
22357;SDS011;11346;50.150;8.150;2023-08-06T14:20:07;1.03;;;0.93;;
22357;SDS011;11346;50.150;8.150;2023-08-06T14:22:37;1.60;;;0.50;;
22357;SDS011;11346;50.150;8.150;2023-08-06T14:25:05;0.70;;;0.70;;
22357;SDS011;11346;50.150;8.150;2023-08-06T14:27:34;1.60;;;0.60;;
22357;SDS011;11346;50.150;8.150;2023-08-06T14:30:01;0.87;;;0.60;;
22357;SDS011;11346;50.150;8.150;2023-08-06T14:32:28;0.40;;;0.40;;
22357;SDS011;11346;50.150;8.150;2023-08-06T14:34:55;0.40;;;0.40;;
22357;SDS011;11346;50.150;8.150;2023-08-06T14:37:24;0.40;;;0.40;;
22357;SDS011;11346;50.150;8.150;2023-08-06T14:39:51;0.60;;;0.60;;
22357;SDS011;11346;50.150;8.150;2023-08-06T14:42:18;0.47;;;0.47;;
22357;SDS011;11346;50.150;8.150;2023-08-06T14:44:47;0.43;;;0.40;;
22357;SDS011;11346;50.150;8.150;2023-08-06T14:47:15;4.73;;;0.70;;
22357;SDS011;11346;50.150;8.150;2023-08-06T14:49:42;0.50;;;0.50;;
22357;SDS011;11346;50.150;8.150;2023-08-06T14:52:09;1.13;;;0.70;;
22357;SDS011;11346;50.150;8.150;2023-08-06T14:54:36;0.87;;;0.60;;